Latest Weather Observations for Mildura

IDN60801

Issued at 5:32 pm EST Saturday 20 July 2019 (issued every 10 minutes, with the page automatically refreshed every 10 minutes)

About weather observations | Map of weather stations | Latest weather observations for NSW | Other Formats
Station Details ID: 076031 Name: MILDURA AIRPORT Lat: -34.24 Lon: 142.09 Height: 50.0 m
Data from the previous 72 hours. | See also: Recent months at Mildura
Date/Time
EST
Temp
°C
App
Temp
°C
Dew
Point
°C
Rel
Hum
%
Delta-T
°C
Wind Press
QNH
hPa
Press
MSL
hPa
Rain since
9am
mm
Dir  Spd
km/h
Gust
km/h
Spd
kts
Gust
kts
20/05:30pm 17.8 10.5 0.0 30 7.7 N 28 37 15 20 1012.5 1012.6 0.0
20/05:00pm 18.4 11.6 0.5 30 7.9 N 26 37 14 20 1012.9 1013.0 0.0
20/04:30pm 18.8 11.2 0.4 29 8.1 N 30 39 16 21 1013.3 1013.4 0.0
20/04:00pm 18.8 10.7 0.9 30 8.0 N 33 46 18 25 1013.3 1013.4 0.0
20/03:30pm 18.8 10.7 0.9 30 8.0 N 33 44 18 24 1013.6 1013.7 0.0
20/03:00pm 18.9 10.9 0.5 29 8.1 N 32 43 17 23 1014.0 1014.1 0.0
20/02:30pm 18.3 10.3 0.4 30 7.9 N 32 43 17 23 1014.6 1014.7 0.0
20/02:00pm 18.6 10.8 1.6 32 7.7 N 32 43 17 23 1014.8 1014.9 0.0
20/01:30pm 18.2 10.7 1.3 32 7.6 N 30 41 16 22 1015.5 1015.6 0.0
20/01:00pm 18.0 10.5 1.5 33 7.4 N 30 48 16 26 1016.0 1016.1 0.0
20/12:59pm 17.8 10.3 1.3 33 7.4 N 30 48 16 26 1016.1 1016.2 0.0
20/12:30pm 17.5 9.5 1.5 34 7.1 N 33 44 18 24 1016.8 1016.9 0.0
20/12:00pm 16.9 10.3 2.1 37 6.6 N 26 39 14 21 1017.7 1017.7 0.0
20/11:54am 16.7 9.8 2.3 38 6.5 N 28 46 15 25 1017.8 1017.8 0.0
20/11:30am 16.2 9.9 1.5 37 6.5 N 24 33 13 18 1018.4 1018.4 0.0
20/11:00am 15.4 10.0 2.6 42 5.7 N 20 33 11 18 1018.8 1018.8 0.0
20/10:30am 14.2 8.5 3.1 47 5.0 N 22 30 12 16 1019.3 1019.3 0.0
20/10:00am 12.3 8.1 3.8 56 3.8 NNE 15 20 8 11 1019.5 1019.5 0.0
20/09:30am 10.3 5.9 4.5 67 2.6 NNE 17 20 9 11 1019.7 1019.7 0.0
20/09:00am 8.6 5.0 4.8 77 1.7 NNE 13 15 7 8 1019.9 1019.9 0.0
20/08:30am 6.8 3.0 3.9 82 1.2 NNE 13 15 7 8 1019.8 1019.8 0.0
20/08:00am 4.9 1.8 3.4 90 0.6 NE 9 11 5 6 1019.7 1019.7 0.0
20/07:30am 4.0 0.3 2.4 89 0.6 NNE 11 13 6 7 1019.8 1019.8 0.0
20/07:00am 4.5 0.5 2.8 89 0.7 NNE 13 15 7 8 1019.7 1019.7 0.0
20/06:30am 4.5 0.9 2.7 88 0.7 NNE 11 13 6 7 1019.6 1019.6 0.0
20/06:00am 5.1 1.2 3.3 88 0.7 NNE 13 15 7 8 1019.4 1019.4 0.0
20/05:30am 5.2 1.7 3.5 89 0.7 NNE 11 13 6 7 1019.4 1019.4 0.0
20/05:00am 5.0 1.8 3.0 87 0.8 NNE 9 11 5 6 1019.5 1019.5 0.0
20/04:30am 5.2 2.1 3.5 89 0.7 NE 9 11 5 6 1019.6 1019.6 0.0
20/04:00am 5.1 1.5 3.0 86 0.9 NNE 11 13 6 7 1019.9 1019.9 0.0
20/03:30am 6.0 2.6 3.8 86 0.9 NNE 11 13 6 7 1020.2 1020.2 0.0
20/03:00am 5.1 1.5 3.0 86 0.9 NNE 11 13 6 7 1020.3 1020.3 0.0
20/02:30am 5.7 2.6 3.4 85 1.0 NE 9 9 5 5 1020.6 1020.6 0.0
20/02:00am 5.9 2.7 2.9 81 1.2 NNE 9 11 5 6 1020.6 1020.6 0.0
20/01:30am 6.7 3.2 3.7 81 1.3 NNE 11 13 6 7 1020.7 1020.7 0.0
20/01:00am 6.8 3.0 3.8 81 1.3 NNE 13 13 7 7 1020.8 1020.8 0.0
20/12:30am 6.9 3.4 3.5 79 1.4 NE 11 13 6 7 1020.9 1020.9 0.0
20/12:00am 7.0 3.9 3.8 80 1.4 NE 9 11 5 6 1021.2 1021.2 0.0
 
Date/Time
EST
Temp
°C
App
Temp
°C
Dew
Point
°C
Rel
Hum
%
Delta-T
°C
Wind Press
QNH
hPa
Press
MSL
hPa
Rain since
9am
mm
Dir  Spd
km/h
Gust
km/h
Spd
kts
Gust
kts
19/11:30pm 7.3 4.3 4.1 80 1.4 NE 9 9 5 5 1021.6 1021.7 0.0
19/11:00pm 7.8 4.8 4.2 78 1.6 NNE 9 11 5 6 1021.8 1021.9 0.0
19/10:30pm 8.4 5.5 4.6 77 1.7 NNE 9 11 5 6 1021.7 1021.8 0.0
19/10:00pm 8.2 5.6 4.4 77 1.7 NE 7 9 4 5 1021.7 1021.8 0.0
19/09:30pm 9.2 6.7 5.0 75 1.9 NE 7 9 4 5 1021.7 1021.8 0.0
19/09:00pm 8.9 6.4 4.9 76 1.8 NE 7 9 4 5 1021.7 1021.8 0.0
19/08:30pm 9.1 6.7 5.3 77 1.7 NE 7 9 4 5 1021.7 1021.8 0.0
19/08:00pm 9.9 7.7 5.1 72 2.2 NE 6 7 3 4 1021.5 1021.6 0.0
19/07:30pm 11.4 9.2 5.5 67 2.7 N 6 7 3 4 1021.2 1021.2 0.0
19/07:00pm 13.3 11.0 5.5 59 3.6 N 7 9 4 5 1021.3 1021.4 0.0
19/06:30pm 14.1 11.4 5.7 57 4.0 N 9 11 5 6 1021.0 1021.0 0.0
19/06:00pm 14.8 12.5 5.9 55 4.2 N 7 11 4 6 1020.9 1020.9 0.0
19/05:30pm 15.9 13.2 5.8 51 4.9 N 9 13 5 7 1020.7 1020.7 0.0
19/05:00pm 16.9 13.1 5.8 48 5.4 N 15 19 8 10 1020.6 1020.6 0.0
19/04:30pm 17.5 14.1 6.1 47 5.6 NNW 13 19 7 10 1020.5 1020.5 0.0
19/04:00pm 17.7 14.5 6.9 49 5.4 N 13 20 7 11 1020.6 1020.6 0.0
19/03:30pm 17.8 14.1 6.3 47 5.7 N 15 20 8 11 1020.6 1020.6 0.0
19/03:00pm 17.4 14.2 6.9 50 5.2 N 13 20 7 11 1020.7 1020.7 0.0
19/02:30pm 17.2 14.3 6.7 50 5.2 NNW 11 19 6 10 1020.9 1020.9 0.0
19/02:00pm 16.9 13.8 7.3 53 4.8 N 13 19 7 10 1021.2 1021.2 0.0
19/01:30pm 16.8 14.1 7.2 53 4.8 NNW 11 17 6 9 1021.4 1021.5 0.0
19/01:00pm 16.5 14.3 8.0 57 4.3 NNW 9 17 5 9 1021.9 1022.0 0.0
19/12:30pm 16.2 14.4 7.9 58 4.2 WNW 7 11 4 6 1022.4 1022.5 0.0
19/12:00pm 15.4 13.7 7.4 59 4.0 WNW 6 11 3 6 1022.8 1022.9 0.0
19/11:30am 14.9 13.1 7.0 59 3.9 WNW 6 11 3 6 1023.2 1023.3 0.0
19/11:00am 14.0 11.6 6.8 62 3.5 NW 9 15 5 8 1023.3 1023.4 0.0
19/10:30am 12.6 10.0 6.2 65 3.0 NW 9 13 5 7 1023.5 1023.6 0.0
19/10:00am 11.5 8.9 6.2 70 2.5 NW 9 13 5 7 1023.5 1023.6 0.0
19/09:30am 10.6 8.5 6.6 76 1.9 NW 7 11 4 6 1023.4 1023.5 0.0
19/09:00am 8.7 5.7 6.0 83 1.2 NNW 11 15 6 8 1023.3 1023.4 0.0
19/08:30am 7.5 4.8 5.8 89 0.8 NNW 9 15 5 8 1023.0 1023.1 0.0
19/08:00am 5.6 3.4 5.3 98 0.1 N 6 9 3 5 1022.7 1022.8 0.0
19/07:30am 5.1 2.8 5.0 99 0.0 N 6 7 3 4 1022.6 1022.7 0.0
19/07:00am 4.2 2.9 4.1 99 0.0 CALM 0 0 0 0 1022.1 1022.2 0.0
19/06:30am 5.2 3.0 5.1 99 0.0 NNW 6 9 3 5 1021.8 1021.9 0.0
19/06:00am 5.1 2.6 5.0 99 0.0 NNW 7 9 4 5 1021.5 1021.6 0.0
19/05:30am 4.9 2.6 4.8 99 0.0 N 6 7 3 4 1021.4 1021.5 0.0
19/05:00am 4.7 3.5 4.4 98 0.1 CALM 0 0 0 0 1021.3 1021.4 0.0
19/04:30am 5.3 3.4 4.7 96 0.3 NNW 4 7 2 4 1021.2 1021.2 0.0
19/04:00am 5.4 2.9 5.0 97 0.2 N 7 9 4 5 1021.3 1021.4 0.0
19/03:30am 5.4 3.9 5.0 97 0.2 N 2 9 1 5 1021.3 1021.4 0.0
19/03:00am 5.1 3.0 4.1 93 0.4 NNW 4 7 2 4 1021.1 1021.1 0.0
19/02:30am 5.8 3.4 5.2 96 0.3 NW 7 9 4 5 1021.0 1021.0 0.0
19/02:00am 5.7 4.6 5.1 96 0.3 CALM 0 0 0 0 1021.0 1021.0 0.0
19/01:30am 5.9 4.8 5.2 95 0.3 CALM 0 0 0 0 1020.8 1020.8 0.0
19/01:00am 5.6 4.4 4.7 94 0.4 CALM 0 6 0 3 1020.8 1020.8 0.0
19/12:30am 5.6 4.5 4.9 95 0.3 CALM 0 0 0 0 1021.0 1021.0 0.0
19/12:00am 5.9 4.0 4.9 93 0.4 W 4 7 2 4 1021.0 1021.0 0.0
 
Date/Time
EST
Temp
°C
App
Temp
°C
Dew
Point
°C
Rel
Hum
%
Delta-T
°C
Wind Press
QNH
hPa
Press
MSL
hPa
Rain since
9am
mm
Dir  Spd
km/h
Gust
km/h
Spd
kts
Gust
kts
18/11:30pm 6.0 3.5 4.5 90 0.6 WSW 7 9 4 5 1021.0 1021.0 0.0
18/11:00pm 7.0 4.7 4.8 86 1.0 WNW 6 7 3 4 1020.9 1020.9 0.0
18/10:30pm 8.1 5.9 5.4 83 1.2 WNW 6 7 3 4 1020.9 1020.9 0.0
18/10:00pm 9.0 6.7 5.6 79 1.5 W 7 9 4 5 1020.7 1020.7 0.0
18/09:30pm 10.1 7.5 5.9 75 1.9 W 9 13 5 7 1020.7 1020.7 0.0
18/09:00pm 11.1 8.9 6.0 71 2.4 N 7 11 4 6 1020.2 1020.2 0.0
18/08:30pm 11.0 8.4 6.2 72 2.2 N 9 11 5 6 1020.0 1020.0 0.0
18/08:00pm 11.2 8.6 6.3 72 2.3 N 9 11 5 6 1019.9 1019.9 0.0
18/07:30pm 11.4 9.2 6.3 71 2.4 N 7 9 4 5 1019.8 1019.8 0.0
18/07:00pm 11.8 9.9 6.5 70 2.5 N 6 7 3 4 1019.7 1019.7 0.0
18/06:30pm 12.8 10.6 6.4 65 3.1 N 7 9 4 5 1019.7 1019.7 0.0
18/06:00pm 13.8 11.3 6.4 61 3.5 NNW 9 11 5 6 1019.4 1019.4 0.0
18/05:30pm 14.6 11.7 6.4 58 4.0 NW 11 15 6 8 1019.3 1019.3 0.0
18/05:00pm 15.7 12.8 6.4 54 4.5 NW 11 17 6 9 1019.2 1019.2 0.0
18/04:30pm 15.9 11.8 6.1 52 4.8 WNW 17 24 9 13 1019.2 1019.2 0.0
18/04:00pm 15.4 11.8 6.7 56 4.2 NW 15 20 8 11 1019.1 1019.1 0.0
18/03:30pm 15.1 11.6 7.2 59 3.9 NNW 15 20 8 11 1019.2 1019.2 0.0
18/03:00pm 15.2 11.7 7.3 59 3.9 NW 15 20 8 11 1019.5 1019.5 0.0
18/02:30pm 14.8 11.1 7.8 63 3.5 NW 17 22 9 12 1019.9 1019.9 0.0
18/02:00pm 14.5 11.2 8.0 65 3.2 NW 15 26 8 14 1019.9 1019.9 0.0
18/01:30pm 13.6 10.6 7.6 67 3.0 NW 13 24 7 13 1020.1 1020.1 0.0
18/01:00pm 13.0 10.0 7.9 71 2.5 NW 13 22 7 12 1020.6 1020.6 0.0
18/12:30pm 12.8 9.6 8.3 74 2.2 WNW 15 20 8 11 1021.2 1021.2 0.0
18/12:00pm 12.1 9.2 8.0 76 2.0 NW 13 17 7 9 1021.9 1022.0 0.0
18/11:48am 11.7 9.1 7.8 77 1.9 NNW 11 17 6 9 1022.0 1022.1 0.0
18/11:30am 10.5 8.0 8.3 86 1.1 NW 11 15 6 8 1022.2 1022.3 0.0
18/11:00am 9.0 6.9 8.4 96 0.3 NW 9 15 5 8 1022.5 1022.6 0.0
18/10:53am 8.7 6.6 8.4 98 0.1 NW 9 13 5 7 1022.6 1022.7 0.0
18/10:30am 8.5 6.1 8.5 100 0.0 WNW 11 15 6 8 1022.9 1023.0 0.0
18/10:00am 8.6 6.6 8.6 100 0.0 WNW 9 15 5 8 1022.8 1022.9 0.0
18/09:30am 8.0 7.5 8.0 100 0.0 CALM 0 6 0 3 1022.3 1022.4 0.0
18/09:22am 8.1 7.7 8.1 100 0.0 CALM 0 0 0 0 1022.3 1022.4 0.0
18/09:00am 7.8 6.9 7.8 100 0.0 SW 2 7 1 4 1022.1 1022.2 0.0
18/08:30am 8.1 6.3 8.1 100 0.0 WNW 7 11 4 6 1022.3 1022.4 0.0
18/08:00am 8.1 6.3 8.1 100 0.0 WNW 7 11 4 6 1022.2 1022.3 0.0
18/07:48am 8.2 6.5 8.2 100 0.0 NW 7 11 4 6 1022.1 1022.2 0.0
18/07:30am 8.2 6.5 8.2 100 0.0 W 7 11 4 6 1022.1 1022.2 0.0
18/07:00am 8.1 5.2 8.1 100 0.0 SW 13 19 7 10 1021.8 1021.9 0.0
18/06:30am 7.8 6.0 7.8 100 0.0 WSW 7 11 4 6 1021.5 1021.6 0.0
18/06:19am 7.7 5.8 7.7 100 0.0 W 7 11 4 6 1021.4 1021.5 0.0
18/06:00am 7.4 5.5 7.4 100 0.0 W 7 11 4 6 1021.2 1021.2 0.0
18/05:45am 7.3 5.3 7.2 99 0.0 W 7 11 4 6 1021.0 1021.0 0.0
18/05:30am 7.7 5.8 7.6 99 0.0 W 7 11 4 6 1020.9 1020.9 0.0
18/05:23am 7.9 5.6 7.6 98 0.1 W 9 11 5 6 1021.0 1021.0 0.0
18/05:00am 8.2 6.3 7.6 96 0.3 W 7 11 4 6 1021.0 1021.0 0.0
18/04:30am 8.5 6.6 7.7 95 0.4 W 7 13 4 7 1020.8 1020.8 0.0
18/04:00am 8.9 7.0 7.7 92 0.6 W 7 11 4 6 1020.8 1020.8 0.0
18/03:30am 9.2 6.9 7.6 90 0.8 W 9 15 5 8 1020.7 1020.7 0.0
18/03:00am 9.3 6.3 7.6 89 0.8 W 13 19 7 10 1020.8 1020.8 0.0
18/02:30am 8.9 6.1 7.0 88 0.9 W 11 17 6 9 1020.9 1020.9 0.0
18/02:00am 8.8 6.0 7.1 89 0.8 WNW 11 15 6 8 1021.0 1021.0 0.0
18/01:30am 8.6 6.2 6.9 89 0.8 WNW 9 13 5 7 1021.0 1021.0 0.0
18/01:00am 8.4 5.5 6.4 87 0.9 NW 11 15 6 8 1021.2 1021.2 0.0
18/12:30am 8.8 6.0 6.8 87 0.9 WNW 11 15 6 8 1021.4 1021.5 0.0
18/12:00am 9.4 6.5 6.7 83 1.3 W 11 17 6 9 1021.5 1021.6 0.0
 
Date/Time
EST
Temp
°C
App
Temp
°C
Dew
Point
°C
Rel
Hum
%
Delta-T
°C
Wind Press
QNH
hPa
Press
MSL
hPa
Rain since
9am
mm
Dir  Spd
km/h
Gust
km/h
Spd
kts
Gust
kts
17/11:30pm 9.5 6.6 6.6 82 1.4 W 11 17 6 9 1021.7 1021.8 0.0
17/11:00pm 9.4 6.5 6.5 82 1.3 W 11 15 6 8 1021.8 1021.9 0.0
17/10:30pm 8.4 5.7 5.5 82 1.3 W 9 13 5 7 1022.0 1022.1 0.0
17/10:00pm 8.9 6.2 5.8 81 1.4 W 9 13 5 7 1021.9 1022.0 0.0
17/09:30pm 8.8 6.5 5.5 80 1.5 W 7 11 4 6 1021.7 1021.8 0.0
17/09:00pm 9.1 6.8 5.5 78 1.6 W 7 11 4 6 1021.6 1021.7 0.0
17/08:30pm 10.0 7.3 5.8 75 1.9 W 9 13 5 7 1021.4 1021.5 0.0
17/08:00pm 11.1 7.7 5.8 70 2.5 W 13 19 7 10 1021.2 1021.2 0.0
17/07:30pm 11.8 8.4 5.9 67 2.8 W 13 19 7 10 1021.0 1021.0 0.0
17/07:00pm 12.5 8.7 5.9 64 3.1 W 15 22 8 12 1020.8 1020.8 0.0
17/06:30pm 12.9 9.8 5.6 61 3.4 W 11 17 6 9 1020.5 1020.5 0.0
17/06:00pm 13.4 9.9 5.3 58 3.8 W 13 20 7 11 1020.3 1020.3 0.0

Other formats

Comma delimited format used in spreadsheet applications
http://www.bom.gov.au/fwo/IDN60801/IDN60801.94693.axf

JavaScript Object Notation format (JSON) in row-major order
http://www.bom.gov.au/fwo/IDN60801/IDN60801.94693.json

Data quality

Most of these data are generated automatically and are frequently updated. Quality checks on data are not normally performed. It is possible for incorrect values to appear. Refer to information at About Latest Weather Observations and please check the disclaimer before using these data.